Time;durP1;ratioP1;P1;durP2;ratioP2;P2;SDS_P1;SDS_P2;PMS_P1;PMS_P2;Temp;Humidity;BMP_temperature;BMP_pressure;BME280_temperature;BME280_humidity;BME280_pressure;Samples;Min_cycle;Max_cycle;Signal;HPM_P1;HPM_P2
2021/08/08 00:00:35;;;;;;;2.70;2.47;;;15.90;99.90;;;;;;4998326;28;20457;-63
2021/08/08 00:03:02;;;;;;;4.07;2.00;;;15.90;99.90;;;;;;4997744;28;20806;-63
2021/08/08 00:05:32;;;;;;;3.50;2.80;;;15.80;99.90;;;;;;4988484;28;20556;-63
2021/08/08 00:07:59;;;;;;;4.20;2.43;;;15.90;99.90;;;;;;4986112;28;20479;-63
2021/08/08 00:10:26;;;;;;;2.97;2.50;;;15.90;99.90;;;;;;4992133;28;20821;-62
2021/08/08 01:23:00;;;;;;;3.67;3.30;;;15.50;99.90;;;;;;5225402;23;20496;-65
2021/08/08 01:25:30;;;;;;;5.63;4.33;;;15.50;99.90;;;;;;5003138;28;20559;-66
2021/08/08 01:27:59;;;;;;;4.90;3.40;;;15.50;99.90;;;;;;5001511;28;20439;-66
2021/08/08 01:30:27;;;;;;;3.90;3.60;;;15.50;99.90;;;;;;5000875;28;20755;-66
2021/08/08 01:33:01;;;;;;;4.50;4.10;;;15.60;99.90;;;;;;5000600;28;20498;-67
2021/08/08 01:35:28;;;;;;;6.17;3.80;;;15.60;99.90;;;;;;5000481;28;20472;-67
2021/08/08 01:37:55;;;;;;;5.80;4.00;;;15.60;99.90;;;;;;5000597;28;20472;-67
2021/08/08 01:40:26;;;;;;;5.50;4.30;;;15.60;99.90;;;;;;5000772;28;20768;-66
2021/08/08 01:42:59;;;;;;;5.40;4.20;;;15.60;99.90;;;;;;5000176;28;20527;-66
2021/08/08 01:45:27;;;;;;;4.17;3.83;;;15.60;99.90;;;;;;5000311;28;20464;-66
2021/08/08 01:47:58;;;;;;;4.53;4.13;;;15.60;99.90;;;;;;5000242;28;20531;-66
2021/08/08 01:50:31;;;;;;;7.93;4.20;;;15.60;99.90;;;;;;5000120;28;20495;-66
2021/08/08 01:52:58;;;;;;;5.77;3.80;;;15.60;99.90;;;;;;4999997;28;20472;-67
2021/08/08 01:55:25;;;;;;;5.37;4.07;;;15.60;99.90;;;;;;5000105;28;20520;-67
2021/08/08 01:57:52;;;;;;;8.67;4.43;;;15.70;99.90;;;;;;4999055;28;20899;-67
2021/08/08 02:00:23;;;;;;;5.80;4.10;;;15.60;99.90;;;;;;5000239;28;20461;-67
2021/08/08 02:02:51;;;;;;;6.10;3.93;;;15.60;99.90;;;;;;4997881;28;20465;-67
2021/08/08 02:05:20;;;;;;;4.73;3.60;;;15.60;99.90;;;;;;5007095;28;20534;-67
2021/08/08 02:07:48;;;;;;;6.63;4.30;;;15.60;99.90;;;;;;5005070;28;20478;-67
2021/08/08 02:10:15;;;;;;;8.00;4.27;;;15.60;99.90;;;;;;5016829;28;20492;-67
2021/08/08 02:12:42;;;;;;;5.03;4.57;;;15.60;99.90;;;;;;5016686;28;20464;-67
2021/08/08 02:15:12;;;;;;;4.60;4.17;;;15.60;99.90;;;;;;4999854;28;20465;-67
2021/08/08 02:17:43;;;;;;;4.03;3.70;;;15.60;99.90;;;;;;4999660;28;20475;-66
2021/08/08 02:20:17;;;;;;;4.60;3.97;;;15.60;99.90;;;;;;5000039;28;20758;-66
2021/08/08 02:22:44;;;;;;;10.17;4.50;;;15.60;99.90;;;;;;5013716;28;20500;-66
2021/08/08 02:25:12;;;;;;;5.47;3.97;;;15.60;99.90;;;;;;5018969;28;20475;-67
2021/08/08 02:27:40;;;;;;;7.93;3.50;;;15.60;99.90;;;;;;5019899;28;20948;-67
2021/08/08 02:30:09;;;;;;;5.97;3.60;;;15.60;99.90;;;;;;5018707;28;20523;-66
2021/08/08 02:32:36;;;;;;;6.50;4.03;;;15.60;99.90;;;;;;5019270;28;20832;-67
2021/08/08 02:35:05;;;;;;;6.60;4.00;;;15.70;99.90;;;;;;5018626;28;20978;-66
2021/08/08 02:37:32;;;;;;;5.07;4.57;;;15.70;99.90;;;;;;5018849;28;20522;-66
2021/08/08 02:39:59;;;;;;;5.07;3.70;;;15.70;99.90;;;;;;5002898;28;20457;-65
2021/08/08 02:42:27;;;;;;;5.07;3.73;;;15.70;99.90;;;;;;4999160;28;20468;-65
2021/08/08 02:44:54;;;;;;;10.07;4.47;;;15.70;99.90;;;;;;4999361;28;20465;-66
2021/08/08 02:47:22;;;;;;;7.27;3.57;;;15.70;99.90;;;;;;4999401;28;20464;-66
2021/08/08 02:49:48;;;;;;;6.57;4.03;;;15.70;99.90;;;;;;4999487;28;20779;-66
2021/08/08 02:52:17;;;;;;;7.30;3.33;;;15.70;99.90;;;;;;4999360;28;20498;-65
2021/08/08 02:54:44;;;;;;;6.43;4.13;;;15.70;99.90;;;;;;4998680;28;20465;-65
2021/08/08 02:57:12;;;;;;;5.40;3.63;;;15.70;99.90;;;;;;4998784;28;20447;-66
2021/08/08 02:59:39;;;;;;;5.80;3.80;;;15.70;99.90;;;;;;4999551;28;20468;-64
2021/08/08 03:02:06;;;;;;;9.20;4.33;;;15.60;99.90;;;;;;4998858;28;20562;-64
2021/08/08 03:04:34;;;;;;;7.43;3.87;;;15.70;99.90;;;;;;4998681;28;20468;-64
2021/08/08 03:07:01;;;;;;;7.73;4.27;;;15.70;99.90;;;;;;5007262;28;20468;-64
2021/08/08 03:09:31;;;;;;;12.40;3.87;;;15.70;99.90;;;;;;5010003;28;20464;-64
2021/08/08 03:11:58;;;;;;;7.43;4.23;;;15.70;99.90;;;;;;5018207;28;20947;-64
2021/08/08 03:14:25;;;;;;;5.87;4.30;;;15.60;99.90;;;;;;5002034;28;20461;-64
2021/08/08 03:16:53;;;;;;;8.50;4.63;;;15.60;99.90;;;;;;4998847;28;20717;-64
2021/08/08 03:19:20;;;;;;;9.87;4.93;;;15.60;99.90;;;;;;4999156;28;20469;-64
2021/08/08 03:21:47;;;;;;;5.10;3.63;;;15.60;99.90;;;;;;5005685;28;20510;-63
2021/08/08 03:24:14;;;;;;;11.20;5.33;;;15.60;99.90;;;;;;5017669;28;20553;-63
2021/08/08 03:26:42;;;;;;;10.47;5.93;;;15.60;99.90;;;;;;5018223;28;20472;-63
2021/08/08 03:29:10;;;;;;;11.00;4.67;;;15.60;99.90;;;;;;5018156;28;20524;-63
2021/08/08 03:31:37;;;;;;;6.30;4.00;;;15.50;99.90;;;;;;5017607;28;21003;-62
2021/08/08 03:34:04;;;;;;;7.87;4.10;;;15.50;99.90;;;;;;5017871;28;20464;-63
2021/08/08 03:36:31;;;;;;;8.93;4.47;;;15.50;99.90;;;;;;5017499;28;20905;-63
2021/08/08 03:38:59;;;;;;;6.63;4.23;;;15.50;99.90;;;;;;5010343;28;20469;-63
2021/08/08 03:41:26;;;;;;;6.60;4.10;;;15.50;99.90;;;;;;5018287;28;20459;-63
2021/08/08 03:43:54;;;;;;;4.73;4.27;;;15.50;99.90;;;;;;5018170;28;20571;-62
2021/08/08 03:46:21;;;;;;;8.53;3.93;;;15.50;99.90;;;;;;5017796;28;20468;-63
2021/08/08 03:48:48;;;;;;;8.03;4.10;;;15.40;99.90;;;;;;5018187;28;20497;-62
2021/08/08 03:51:15;;;;;;;7.10;5.10;;;15.40;99.90;;;;;;5017279;28;20506;-62
2021/08/08 03:53:42;;;;;;;8.97;4.53;;;15.40;99.90;;;;;;5017930;28;20530;-62
2021/08/08 03:56:12;;;;;;;7.23;4.20;;;15.40;99.90;;;;;;5017756;28;20542;-62
2021/08/08 03:58:39;;;;;;;8.23;4.10;;;15.30;99.90;;;;;;5017754;28;20472;-63
2021/08/08 04:01:07;;;;;;;7.10;4.33;;;15.30;99.90;;;;;;5017695;28;20791;-62
2021/08/08 04:03:35;;;;;;;8.50;4.30;;;15.40;99.90;;;;;;5009592;28;20483;-62
2021/08/08 04:06:03;;;;;;;11.13;4.93;;;15.30;99.90;;;;;;4998919;28;20473;-62
2021/08/08 04:08:30;;;;;;;9.03;4.67;;;15.30;99.90;;;;;;4998174;28;20452;-62
2021/08/08 04:10:58;;;;;;;4.60;4.10;;;15.30;99.90;;;;;;4997804;28;20933;-62
2021/08/08 04:13:25;;;;;;;12.73;4.60;;;15.30;99.90;;;;;;4998204;28;20494;-62
2021/08/08 04:15:52;;;;;;;5.20;4.20;;;15.30;99.90;;;;;;4997907;28;20734;-62
2021/08/08 04:18:26;;;;;;;12.20;4.67;;;15.20;99.90;;;;;;4997987;28;20469;-62
2021/08/08 04:20:53;;;;;;;9.83;4.83;;;15.20;99.90;;;;;;4997191;28;20949;-62
2021/08/08 04:23:20;;;;;;;10.17;4.03;;;15.20;99.90;;;;;;5016271;28;20477;-62
2021/08/08 04:25:47;;;;;;;10.37;4.47;;;15.20;99.90;;;;;;5017439;28;20567;-62
2021/08/08 04:28:14;;;;;;;10.10;4.57;;;15.20;99.90;;;;;;5017319;28;20530;-62
2021/08/08 04:30:41;;;;;;;7.43;4.47;;;15.20;99.90;;;;;;5017106;28;20500;-62
2021/08/08 04:33:08;;;;;;;10.80;5.13;;;15.30;99.90;;;;;;5016741;28;20911;-62
2021/08/08 04:35:38;;;;;;;9.27;4.23;;;15.30;99.90;;;;;;5017477;28;20811;-62
2021/08/08 04:38:05;;;;;;;9.83;4.53;;;15.30;99.90;;;;;;5016946;28;20464;-62
2021/08/08 04:40:32;;;;;;;11.97;4.70;;;15.30;99.90;;;;;;5017204;28;20562;-62
2021/08/08 04:42:59;;;;;;;12.63;4.40;;;15.30;99.90;;;;;;5016920;28;20468;-61
2021/08/08 04:45:26;;;;;;;7.20;4.87;;;15.30;99.90;;;;;;5017537;28;20446;-61
2021/08/08 04:47:54;;;;;;;9.17;4.10;;;15.30;99.90;;;;;;5017635;28;20439;-61
2021/08/08 04:50:22;;;;;;;8.90;4.60;;;15.30;99.90;;;;;;5016800;28;20470;-61
2021/08/08 04:52:50;;;;;;;10.30;4.40;;;15.30;99.90;;;;;;5017369;28;20459;-61
2021/08/08 04:55:17;;;;;;;10.60;3.70;;;15.30;99.90;;;;;;5017174;28;20472;-62
2021/08/08 04:57:45;;;;;;;6.20;4.27;;;15.30;99.90;;;;;;5017167;28;20468;-61
2021/08/08 05:00:13;;;;;;;7.73;4.47;;;15.30;99.90;;;;;;5016977;28;20951;-61
2021/08/08 05:02:45;;;;;;;7.80;4.07;;;15.30;99.90;;;;;;5014575;28;20907;-61
2021/08/08 05:05:16;;;;;;;10.07;4.93;;;15.30;99.90;;;;;;5005913;28;20473;-62
2021/08/08 05:07:46;;;;;;;10.20;4.53;;;15.30;99.90;;;;;;5003009;28;20465;-61
2021/08/08 05:10:16;;;;;;;8.63;4.27;;;15.10;99.90;;;;;;5014382;28;20468;-61
2021/08/08 05:12:44;;;;;;;11.53;4.33;;;15.10;99.90;;;;;;5014993;28;20746;-61
2021/08/08 05:15:15;;;;;;;11.60;5.40;;;15.20;99.90;;;;;;4997732;28;20464;-62
2021/08/08 05:17:42;;;;;;;9.47;4.70;;;15.20;99.90;;;;;;4998492;28;20523;-62
2021/08/08 05:20:10;;;;;;;7.37;4.20;;;15.20;99.90;;;;;;4997410;28;20904;-61
2021/08/08 05:22:37;;;;;;;9.40;4.33;;;15.20;99.90;;;;;;5011096;28;20487;-62
2021/08/08 05:25:08;;;;;;;5.47;4.17;;;15.30;99.90;;;;;;5016707;28;20471;-61
2021/08/08 05:27:37;;;;;;;6.47;3.67;;;15.30;99.90;;;;;;5017162;28;20464;-62
2021/08/08 05:30:06;;;;;;;7.47;4.83;;;15.30;99.90;;;;;;5016537;28;20463;-61
2021/08/08 05:32:33;;;;;;;9.33;4.50;;;15.30;99.90;;;;;;5016606;28;20500;-61
2021/08/08 05:35:00;;;;;;;14.87;5.10;;;15.30;99.90;;;;;;5020774;28;20467;-62
2021/08/08 05:37:27;;;;;;;9.17;4.50;;;15.30;99.90;;;;;;5020521;28;20489;-62
2021/08/08 05:39:54;;;;;;;8.30;4.00;;;15.30;99.90;;;;;;5004120;28;20457;-62
2021/08/08 05:42:22;;;;;;;10.87;4.97;;;15.40;99.90;;;;;;5001012;28;20519;-62
2021/08/08 05:44:50;;;;;;;5.30;4.20;;;15.40;99.90;;;;;;5000258;28;20564;-62
2021/08/08 05:47:17;;;;;;;8.40;4.47;;;15.40;99.90;;;;;;5000735;28;20543;-62
2021/08/08 05:49:44;;;;;;;6.90;4.83;;;15.40;99.90;;;;;;5013686;28;20467;-62
2021/08/08 05:52:13;;;;;;;9.93;5.30;;;15.30;99.90;;;;;;5018604;28;20569;-62
2021/08/08 05:54:40;;;;;;;9.03;5.00;;;15.40;99.90;;;;;;5019860;28;20464;-62
2021/08/08 05:57:07;;;;;;;10.03;4.90;;;15.40;99.90;;;;;;5019771;28;20468;-62
2021/08/08 05:59:34;;;;;;;11.77;4.37;;;15.40;99.90;;;;;;5019732;28;20491;-62
2021/08/08 06:02:03;;;;;;;8.77;4.87;;;15.40;99.90;;;;;;5019829;28;20460;-62
2021/08/08 06:04:30;;;;;;;11.57;5.90;;;15.40;99.90;;;;;;5004626;28;20539;-62
2021/08/08 06:06:57;;;;;;;8.00;4.67;;;15.40;99.90;;;;;;4999876;28;20461;-62
2021/08/08 06:09:24;;;;;;;10.20;4.77;;;15.50;99.90;;;;;;5000039;28;20465;-62
2021/08/08 06:11:51;;;;;;;11.47;5.37;;;15.40;99.90;;;;;;5015723;28;20507;-62
2021/08/08 06:14:18;;;;;;;12.73;4.03;;;15.50;99.90;;;;;;5015413;28;20519;-62
2021/08/08 06:16:45;;;;;;;8.43;4.47;;;15.50;99.90;;;;;;5018790;28;20832;-62
2021/08/08 06:19:13;;;;;;;13.90;5.23;;;15.60;99.90;;;;;;5018960;28;20452;-62
2021/08/08 06:21:40;;;;;;;9.50;4.00;;;15.60;99.90;;;;;;5012947;28;20445;-62
2021/08/08 06:24:07;;;;;;;8.30;4.47;;;15.70;99.90;;;;;;4998996;28;20831;-62
2021/08/08 06:26:37;;;;;;;7.03;4.43;;;15.70;99.90;;;;;;4999748;28;20919;-62
2021/08/08 06:29:05;;;;;;;9.40;4.70;;;15.90;99.90;;;;;;4999761;28;20464;-62
2021/08/08 06:31:33;;;;;;;7.07;4.23;;;15.90;99.90;;;;;;4998912;28;20591;-62
2021/08/08 06:34:00;;;;;;;8.80;4.17;;;15.90;99.90;;;;;;4999655;28;20500;-62
2021/08/08 06:36:28;;;;;;;9.00;4.33;;;16.00;99.90;;;;;;4999111;28;20465;-62
2021/08/08 06:38:57;;;;;;;12.50;4.17;;;16.10;99.90;;;;;;5007184;28;20539;-62
2021/08/08 06:41:24;;;;;;;11.10;4.13;;;16.20;99.90;;;;;;5018449;28;20537;-62
2021/08/08 06:43:51;;;;;;;12.80;4.07;;;16.30;99.90;;;;;;5018750;28;20468;-62
2021/08/08 06:46:21;;;;;;;6.00;3.73;;;16.30;99.90;;;;;;5018014;28;20468;-62
2021/08/08 06:48:48;;;;;;;11.37;4.23;;;16.40;99.90;;;;;;5018200;28;20470;-62
2021/08/08 06:51:18;;;;;;;8.07;4.17;;;16.40;99.90;;;;;;5018671;28;20488;-62
2021/08/08 06:53:47;;;;;;;6.10;4.03;;;16.60;99.90;;;;;;5018809;28;20468;-62
2021/08/08 06:56:14;;;;;;;6.77;3.87;;;16.60;99.90;;;;;;5017944;28;20464;-62
2021/08/08 07:02:03;;;;;;;8.60;4.30;;;17.00;99.90;;;;;;5008297;28;20506;-62
2021/08/08 07:04:30;;;;;;;8.70;4.80;;;17.10;99.90;;;;;;5005816;28;20501;-62
2021/08/08 07:06:57;;;;;;;6.27;3.53;;;17.00;99.90;;;;;;5008947;28;20423;-62
2021/08/08 07:09:25;;;;;;;8.27;4.47;;;17.00;99.90;;;;;;5010300;28;20480;-62
2021/08/08 07:11:53;;;;;;;12.27;4.33;;;16.80;99.90;;;;;;5016899;28;20534;-60
2021/08/08 07:14:20;;;;;;;7.63;4.10;;;16.90;99.90;;;;;;5014358;28;20831;-62
2021/08/08 07:16:47;;;;;;;6.20;3.37;;;17.00;99.90;;;;;;5017111;28;20522;-62
2021/08/08 07:19:14;;;;;;;6.47;3.80;;;17.10;99.90;;;;;;5017117;28;20465;-62
2021/08/08 07:21:41;;;;;;;7.23;3.20;;;17.10;99.90;;;;;;5012622;28;20457;-61
2021/08/08 07:24:07;;;;;;;5.87;4.60;;;17.00;99.90;;;;;;5014841;28;20532;-61
2021/08/08 07:26:36;;;;;;;8.50;4.37;;;16.90;99.90;;;;;;5017593;28;20468;-61
2021/08/08 07:29:03;;;;;;;8.03;4.30;;;16.80;99.90;;;;;;5016142;28;20478;-61
2021/08/08 07:31:30;;;;;;;10.20;4.60;;;16.60;99.90;;;;;;5018079;28;20754;-60
2021/08/08 07:33:57;;;;;;;4.07;3.67;;;16.60;99.90;;;;;;5016048;28;20472;-61
2021/08/08 07:36:24;;;;;;;7.13;4.20;;;16.70;99.90;;;;;;5015098;28;20472;-61
2021/08/08 07:38:51;;;;;;;6.37;3.77;;;16.60;99.90;;;;;;5016147;28;20464;-61
2021/08/08 07:41:19;;;;;;;6.47;4.50;;;16.50;99.90;;;;;;5014920;28;20522;-61
2021/08/08 07:43:47;;;;;;;11.23;4.77;;;16.50;99.90;;;;;;5017187;28;20900;-61
2021/08/08 07:46:16;;;;;;;5.37;3.80;;;16.60;99.90;;;;;;5016586;28;21056;-61
2021/08/08 07:48:44;;;;;;;8.43;4.90;;;16.60;99.90;;;;;;5017053;28;20557;-60
2021/08/08 07:51:11;;;;;;;9.30;4.43;;;16.60;99.90;;;;;;5017332;28;20522;-60
2021/08/08 07:53:40;;;;;;;12.27;4.40;;;16.60;99.90;;;;;;5010025;28;20467;-61
2021/08/08 07:56:09;;;;;;;6.50;4.20;;;16.60;99.90;;;;;;5016726;28;20470;-60
2021/08/08 07:58:37;;;;;;;8.43;5.07;;;16.80;99.90;;;;;;5016568;28;20876;-61
2021/08/08 08:01:06;;;;;;;6.30;4.10;;;17.20;99.90;;;;;;5017613;28;20559;-60
2021/08/08 08:03:33;;;;;;;6.87;4.53;;;17.40;99.90;;;;;;5010451;28;20526;-59
2021/08/08 08:06:00;;;;;;;8.97;3.97;;;17.40;99.90;;;;;;5014598;28;20468;-60
2021/08/08 08:08:27;;;;;;;8.77;3.93;;;17.50;99.90;;;;;;5017139;28;20905;-61
2021/08/08 08:10:54;;;;;;;11.23;4.27;;;17.30;99.90;;;;;;5017572;28;20463;-60
2021/08/08 08:13:21;;;;;;;5.17;4.57;;;17.10;99.90;;;;;;5016863;28;20470;-60
2021/08/08 08:15:50;;;;;;;11.00;4.70;;;17.00;99.90;;;;;;5016940;28;20486;-58
2021/08/08 08:18:18;;;;;;;9.43;4.60;;;17.10;99.90;;;;;;5017619;28;20526;-59
2021/08/08 08:20:48;;;;;;;8.67;4.50;;;17.30;99.90;;;;;;5017573;28;20467;-57
2021/08/08 08:23:15;;;;;;;5.93;4.00;;;18.20;99.90;;;;;;5016525;28;20533;-60
2021/08/08 08:25:43;;;;;;;11.83;4.10;;;18.50;99.90;;;;;;5017611;28;20442;-60
2021/08/08 08:28:12;;;;;;;10.73;4.10;;;18.80;99.90;;;;;;5017403;28;20443;-59
2021/08/08 08:30:39;;;;;;;8.97;5.20;;;18.50;98.70;;;;;;5017078;28;20566;-60
2021/08/08 08:33:06;;;;;;;8.13;4.60;;;18.80;99.90;;;;;;5016619;28;20793;-59
2021/08/08 08:35:35;;;;;;;8.83;5.10;;;18.90;97.90;;;;;;5017106;28;20887;-60
2021/08/08 08:38:02;;;;;;;7.33;4.60;;;18.70;97.60;;;;;;5017308;28;20556;-58
2021/08/08 08:40:30;;;;;;;7.17;3.90;;;18.80;97.50;;;;;;5017030;28;20772;-60
2021/08/08 08:43:03;;;;;;;9.33;4.70;;;18.50;98.90;;;;;;5017146;28;20464;-60
2021/08/08 08:45:31;;;;;;;9.87;4.40;;;18.30;98.70;;;;;;5016962;28;20522;-55
2021/08/08 08:47:59;;;;;;;7.43;4.77;;;18.30;98.00;;;;;;5017406;28;20770;-59
2021/08/08 08:50:27;;;;;;;9.87;4.37;;;18.70;98.00;;;;;;5016753;28;20468;-57
2021/08/08 08:52:55;;;;;;;8.03;3.93;;;19.00;94.60;;;;;;5016471;28;20497;-59
2021/08/08 08:55:23;;;;;;;8.63;4.13;;;19.10;93.90;;;;;;5016649;28;20917;-59
2021/08/08 08:57:50;;;;;;;11.53;4.43;;;19.70;93.10;;;;;;5017137;28;20446;-56
2021/08/08 09:00:18;;;;;;;7.30;3.93;;;20.40;89.80;;;;;;5016727;28;20496;-57
2021/08/08 09:02:45;;;;;;;8.53;4.30;;;20.10;87.00;;;;;;5013888;28;20756;-59
2021/08/08 09:05:12;;;;;;;9.60;4.33;;;20.30;90.10;;;;;;5002382;28;20836;-58
2021/08/08 09:07:39;;;;;;;8.90;3.40;;;20.90;90.30;;;;;;5004998;28;20869;-60
2021/08/08 09:10:13;;;;;;;9.70;4.03;;;21.40;84.50;;;;;;5017160;28;20943;-56
2021/08/08 09:12:40;;;;;;;6.80;4.37;;;21.20;82.60;;;;;;5018035;28;20487;-55
2021/08/08 09:15:10;;;;;;;9.83;4.00;;;21.10;81.70;;;;;;5000870;28;20531;-59
2021/08/08 09:17:39;;;;;;;6.60;3.87;;;21.10;79.30;;;;;;5001004;28;20471;-57
2021/08/08 09:20:09;;;;;;;5.30;3.53;;;20.60;79.40;;;;;;5000302;28;20465;-55
2021/08/08 09:55:55;;;;;;;5.70;4.30;;;18.90;82.40;;;;;;5526448;23;20535;31
2021/08/08 09:58:27;;;;;;;7.93;3.93;;;18.90;84.80;;;;;;4998219;28;20443;-56
2021/08/08 10:00:59;;;;;;;8.80;4.37;;;19.00;84.80;;;;;;5000147;28;20563;-58
2021/08/08 10:03:26;;;;;;;8.27;4.90;;;19.10;82.70;;;;;;4991519;28;20527;-59
2021/08/08 10:05:55;;;;;;;8.50;3.73;;;19.00;82.30;;;;;;4988831;28;20473;-56
2021/08/08 10:08:25;;;;;;;12.00;4.10;;;19.20;84.10;;;;;;4982663;28;20462;-59
2021/08/08 10:10:57;;;;;;;9.47;4.60;;;19.10;83.50;;;;;;5000515;28;20464;-60
2021/08/08 10:13:39;;;;;;;9.47;4.00;;;19.00;83.50;;;;;;4991710;28;20500;-60
2021/08/08 10:16:10;;;;;;;8.60;3.80;;;18.90;83.60;;;;;;4980797;28;20448;-60
2021/08/08 10:18:39;;;;;;;8.40;4.17;;;19.20;85.90;;;;;;4979267;28;20501;-59
2021/08/08 11:00:54;;;;;;;4.57;3.00;;;21.40;72.20;;;;;;5013190;28;20848;-61
2021/08/08 11:03:24;;;;;;;7.97;4.40;;;21.10;71.70;;;;;;5008036;28;20919;-60
2021/08/08 11:05:54;;;;;;;4.07;3.20;;;20.40;70.80;;;;;;5012358;28;20472;-60
2021/08/08 11:08:27;;;;;;;6.73;3.40;;;19.90;73.40;;;;;;5016984;28;20452;-59
2021/08/08 11:11:00;;;;;;;6.00;3.60;;;20.30;73.70;;;;;;5030475;28;20464;-58
2021/08/08 11:13:27;;;;;;;7.57;3.30;;;20.60;73.90;;;;;;5017225;28;20537;-60
2021/08/08 11:15:58;;;;;;;5.80;3.93;;;21.10;72.20;;;;;;5018313;28;20479;-59
2021/08/08 11:18:31;;;;;;;6.77;2.80;;;21.60;70.60;;;;;;5016527;28;20464;-59
2021/08/08 11:21:13;;;;;;;5.57;3.17;;;21.60;68.50;;;;;;5026568;28;20593;-58
2021/08/08 11:23:46;;;;;;;6.07;3.20;;;21.70;69.30;;;;;;5021633;28;20460;-60
2021/08/08 11:26:17;;;;;;;5.10;3.80;;;20.80;70.70;;;;;;5020103;28;20464;-56
2021/08/08 11:28:51;;;;;;;5.00;4.00;;;20.50;71.90;;;;;;5023495;28;20840;-58
2021/08/08 11:31:21;;;;;;;5.13;3.87;;;20.60;73.50;;;;;;5019868;28;20547;-57
2021/08/08 11:33:56;;;;;;;6.30;3.73;;;20.70;73.20;;;;;;5025470;28;20578;-59
2021/08/08 11:36:27;;;;;;;4.27;3.33;;;20.50;72.40;;;;;;5021573;28;20468;-56
2021/08/08 11:38:58;;;;;;;6.70;3.00;;;20.30;72.70;;;;;;5022011;28;20460;-57
2021/08/08 11:41:25;;;;;;;4.97;3.20;;;20.10;72.90;;;;;;5020313;28;20862;-55
2021/08/08 11:44:06;;;;;;;5.50;3.33;;;19.60;73.40;;;;;;5022149;28;20514;-54
2021/08/08 11:46:35;;;;;;;4.40;3.40;;;19.50;75.70;;;;;;5017637;28;20863;-58
2021/08/08 11:49:15;;;;;;;6.73;3.43;;;19.40;76.80;;;;;;5024839;28;20468;-59
2021/08/08 11:51:42;;;;;;;4.20;3.10;;;19.70;76.70;;;;;;5024089;28;20509;-55
2021/08/08 11:54:10;;;;;;;4.03;3.00;;;19.70;75.30;;;;;;5021485;28;20574;-56
2021/08/08 11:56:37;;;;;;;7.60;2.90;;;19.70;75.30;;;;;;5021370;28;20526;-58
2021/08/08 11:59:05;;;;;;;4.43;3.23;;;19.70;74.50;;;;;;5020019;28;20496;-55
2021/08/08 12:01:38;;;;;;;7.40;3.37;;;19.60;74.50;;;;;;5018864;28;20827;-58
2021/08/08 12:04:08;;;;;;;6.57;2.87;;;19.60;75.70;;;;;;5007300;28;21115;-58
2021/08/08 12:06:36;;;;;;;5.17;3.13;;;19.70;75.30;;;;;;5019129;28;20467;-59
2021/08/08 12:09:04;;;;;;;6.30;3.20;;;20.00;74.20;;;;;;5023635;28;20485;-55
2021/08/08 12:11:50;;;;;;;5.60;3.67;;;20.30;74.70;;;;;;5025970;28;20459;-57
2021/08/08 12:14:17;;;;;;;6.03;3.13;;;20.60;75.10;;;;;;5021303;28;20582;-57
2021/08/08 12:16:45;;;;;;;5.07;3.17;;;21.10;74.30;;;;;;5025714;28;20459;-57
2021/08/08 12:56:05;;;;;;;2.73;2.50;;;21.70;78.50;;;;;;3646252;23;20847;-59
2021/08/08 12:58:32;;;;;;;5.50;2.80;;;22.60;74.10;;;;;;5027208;28;20452;-60
2021/08/08 13:01:00;;;;;;;5.07;3.13;;;22.60;69.30;;;;;;5029873;28;20553;-59
2021/08/08 13:03:30;;;;;;;5.47;3.80;;;22.30;68.40;;;;;;5017545;28;20895;-60
2021/08/08 13:05:58;;;;;;;3.83;2.70;;;22.00;69.30;;;;;;5018808;28;21512;-58
2021/08/08 13:08:29;;;;;;;3.83;2.77;;;21.70;69.30;;;;;;5027765;28;20458;-59
2021/08/08 13:10:56;;;;;;;6.13;2.83;;;21.40;70.70;;;;;;5027624;28;20426;-57
2021/08/08 13:13:26;;;;;;;5.10;3.13;;;21.30;71.40;;;;;;5028769;28;20485;-57
2021/08/08 13:15:53;;;;;;;3.20;2.90;;;22.30;70.00;;;;;;5028530;28;20465;-60
2021/08/08 13:18:23;;;;;;;5.50;3.00;;;23.50;67.20;;;;;;5030039;28;20434;-60
2021/08/08 13:20:51;;;;;;;3.40;3.10;;;24.00;64.20;;;;;;5028788;28;20733;-60
2021/08/08 13:23:23;;;;;;;4.63;3.33;;;24.10;64.00;;;;;;5027716;28;20910;-60
2021/08/08 13:25:52;;;;;;;5.37;3.30;;;23.30;61.80;;;;;;5024292;28;20492;-60
2021/08/08 13:28:19;;;;;;;5.10;3.17;;;22.40;63.30;;;;;;5029458;28;20455;-59
2021/08/08 13:30:58;;;;;;;3.30;3.00;;;21.70;65.70;;;;;;5029986;28;21479;-64
2021/08/08 13:33:28;;;;;;;4.47;3.00;;;20.90;72.30;;;;;;5026718;28;20540;-61
2021/08/08 13:35:55;;;;;;;5.80;3.67;;;19.50;88.60;;;;;;5026853;28;20523;-62
2021/08/08 13:38:25;;;;;;;4.00;3.40;;;18.70;99.90;;;;;;5027875;28;20453;-58
2021/08/08 13:40:52;;;;;;;3.70;3.20;;;19.00;99.90;;;;;;5030385;28;20459;-60
2021/08/08 13:43:20;;;;;;;4.50;3.60;;;19.70;99.90;;;;;;5029445;28;20448;-62
2021/08/08 13:45:47;;;;;;;4.00;2.90;;;19.50;99.90;;;;;;5028097;28;20525;-62
2021/08/08 13:48:19;;;;;;;6.90;4.07;;;19.10;99.90;;;;;;5030358;28;20451;-61
2021/08/08 13:50:46;;;;;;;6.30;3.87;;;18.80;99.90;;;;;;5030088;28;20463;-63
2021/08/08 13:53:14;;;;;;;5.40;3.90;;;19.00;99.90;;;;;;5029356;28;20490;-64
2021/08/08 13:55:41;;;;;;;4.43;3.43;;;20.00;99.90;;;;;;5028485;28;20905;-63
2021/08/08 13:58:12;;;;;;;5.40;3.43;;;20.90;99.90;;;;;;5028229;28;20638;-65
2021/08/08 14:00:40;;;;;;;7.77;3.73;;;21.30;99.90;;;;;;5029432;28;20462;-65
2021/08/08 14:03:08;;;;;;;5.30;3.63;;;21.20;99.90;;;;;;5023450;28;20514;-64
2021/08/08 14:05:39;;;;;;;3.90;3.50;;;20.80;99.90;;;;;;5016674;28;20755;-64
2021/08/08 14:08:10;;;;;;;5.37;3.83;;;20.30;99.90;;;;;;5028960;28;20451;-65
2021/08/08 14:10:37;;;;;;;5.53;4.30;;;19.70;99.90;;;;;;5028996;28;20517;-65
2021/08/08 14:13:08;;;;;;;5.27;3.80;;;19.20;99.90;;;;;;5028619;28;20550;-71
2021/08/08 14:15:35;;;;;;;6.47;3.67;;;18.30;99.90;;;;;;5024544;28;20456;-70
2021/08/08 14:18:02;;;;;;;4.90;2.50;;;16.80;99.90;;;;;;5028383;28;20466;-68
2021/08/08 14:20:29;;;;;;;3.20;2.90;;;16.10;99.90;;;;;;5027973;28;20241;-64
2021/08/08 14:22:57;;;;;;;3.93;2.83;;;15.80;99.90;;;;;;5027989;28;20452;-66
2021/08/08 14:25:25;;;;;;;3.20;2.90;;;15.70;99.90;;;;;;5029334;28;20448;-67
2021/08/08 14:27:53;;;;;;;4.10;3.20;;;15.60;99.90;;;;;;5027353;28;20460;-67
2021/08/08 14:30:22;;;;;;;3.63;3.13;;;15.70;99.90;;;;;;5028505;28;20463;-68
2021/08/08 14:32:49;;;;;;;3.40;3.10;;;15.70;99.90;;;;;;5029116;28;20488;-69
2021/08/08 14:35:21;;;;;;;4.47;3.50;;;15.70;99.90;;;;;;5028123;28;20495;-70
2021/08/08 14:37:48;;;;;;;5.83;3.67;;;15.90;99.90;;;;;;5027256;28;20838;-70
2021/08/08 14:40:20;;;;;;;3.50;3.00;;;16.00;99.90;;;;;;5028767;28;20877;-69
2021/08/08 14:42:47;;;;;;;3.60;3.30;;;16.20;99.90;;;;;;5027151;28;20989;-69
2021/08/08 14:45:14;;;;;;;5.27;3.57;;;16.40;99.90;;;;;;5024032;28;20451;-70
2021/08/08 14:47:41;;;;;;;3.43;3.13;;;16.60;99.90;;;;;;5028474;28;20422;-70
2021/08/08 14:50:09;;;;;;;3.63;3.10;;;16.70;99.90;;;;;;5023792;28;20433;-71
2021/08/08 14:52:39;;;;;;;3.93;3.07;;;17.40;99.90;;;;;;5024734;28;20449;-70
2021/08/08 14:55:07;;;;;;;4.13;3.37;;;18.00;99.90;;;;;;5027653;28;20558;-69
2021/08/08 14:57:36;;;;;;;4.00;2.90;;;18.40;99.90;;;;;;5017743;28;20509;-69
2021/08/08 15:00:12;;;;;;;3.80;3.33;;;18.70;99.90;;;;;;5025289;28;20464;-69
2021/08/08 15:02:44;;;;;;;4.50;2.70;;;19.00;99.90;;;;;;5024023;28;20907;-69
2021/08/08 15:05:11;;;;;;;4.47;2.97;;;19.90;99.90;;;;;;5008205;28;20755;-71
2021/08/08 15:07:39;;;;;;;5.10;2.80;;;20.00;99.90;;;;;;5024462;28;20455;-72
2021/08/08 15:10:06;;;;;;;2.97;2.73;;;19.60;99.90;;;;;;5023913;28;20760;-72
2021/08/08 15:12:35;;;;;;;4.00;3.43;;;19.10;99.90;;;;;;5024973;28;20460;-72
2021/08/08 15:15:02;;;;;;;5.90;3.70;;;18.80;99.90;;;;;;5024602;28;20521;-72
2021/08/08 15:17:29;;;;;;;4.57;3.40;;;18.60;99.90;;;;;;5025611;28;20452;-72
2021/08/08 15:19:56;;;;;;;3.83;3.40;;;18.30;99.90;;;;;;5028463;28;20479;-73
2021/08/08 15:22:30;;;;;;;3.73;3.40;;;17.80;99.90;;;;;;5030466;28;20455;-72
2021/08/08 15:24:57;;;;;;;3.33;2.90;;;17.50;99.90;;;;;;5027635;28;20811;-71
2021/08/08 15:27:28;;;;;;;2.77;2.57;;;17.20;99.90;;;;;;5028133;28;20457;-70
2021/08/08 15:29:56;;;;;;;2.70;2.50;;;17.00;99.90;;;;;;5024211;28;20434;-69
2021/08/08 15:32:23;;;;;;;5.30;3.10;;;17.00;99.90;;;;;;5027282;28;20450;-69
2021/08/08 15:34:50;;;;;;;5.17;3.30;;;17.00;99.90;;;;;;5028509;28;20537;-68
2021/08/08 15:37:22;;;;;;;3.93;3.10;;;16.90;99.90;;;;;;5025527;28;20451;-68
2021/08/08 15:39:49;;;;;;;3.37;3.07;;;16.90;99.90;;;;;;5025075;28;21150;-67
2021/08/08 15:42:16;;;;;;;2.87;2.63;;;17.10;99.90;;;;;;5016593;28;20526;-67
2021/08/08 15:44:44;;;;;;;4.87;3.40;;;17.50;99.90;;;;;;5023065;28;20970;-67
2021/08/08 15:47:39;;;;;;;3.10;2.80;;;18.00;99.90;;;;;;5029475;28;20515;-67
2021/08/08 15:50:07;;;;;;;4.17;2.87;;;18.70;99.90;;;;;;5025237;28;20484;-66
2021/08/08 15:52:34;;;;;;;3.27;3.00;;;19.30;99.90;;;;;;5020454;28;20468;-65
2021/08/08 15:55:01;;;;;;;2.53;2.33;;;19.80;99.90;;;;;;5017180;28;20500;-64